Akademgorodok, Russia

12:45 PM +08 on July 22, 2018 (GMT +0800)
Irkutsk | | Change Station

Elev 1683 ft 52.27 °N, 104.35 °E | Updated 15 minutes ago

Haze
Haze
68 °F
Feels Like 68 °F
N
7
Wind Variable Wind from SE

Today
High -- | Low -- °F
--% Chance of Precip.
Yesterday
High -- | Low -- °F
Precip. -- in
Pressure 29.83 in
Visibility 1.6 miles
Clouds Mostly Cloudy 2800 ft
Dew Point 57 °F
Humidity 68%
Rainfall 0.00 in
Snow Depth Not available.
5:08 AM 9:09 PM
Waxing Gibbous, 73% visible
METAR UIII 220430Z 14003MPS 110V190 2600 FU BKN028 20/14 Q1010 R12/CLRD60 NOSIG RMK QFE715/0954
Pressure 29.83 in
Visibility 1.6 miles
Clouds Mostly Cloudy 2800 ft
Dew Point 57 °F
Humidity 68%
Rainfall 0.00 in
Snow Depth Not available.
5:08 AM 9:09 PM
Waxing Gibbous, 73% visible
METAR UIII 220430Z 14003MPS 110V190 2600 FU BKN028 20/14 Q1010 R12/CLRD60 NOSIG RMK QFE715/0954

Get Severe Weather Alerts

Thanks for signing up!

Be on the lookout for a verification email in your inbox.

You'll start receiving the daily forecast at 6 AM.

×

10-Day Weather Forecast

×

Almanac

Astronomy

Jul. 22, 2018 Rise Set
Actual Time
Civil Twilight
Nautical Twilight
Astronomical Twilight
Moon
Length of Visible Light
Length of Day
Tomorrow will be .
, % of the Moon is Illuminated

Today's Extremes

Country Highs Country Lows

Community

WunderPhotos

Category 6

Welcome to Category 6. This is the collective home for Weather Underground's featured writeups by Dr. Jeff Masters (right), Bob Henson (left), Chris Burt, and other regular contributors.

Nearby

Air Quality

  Air Quality AQ Index Pollutant
Not available.

Snow Depth

Station Depth Elevation

Earthquake Activity

City Distance Mag. Time & Date
Minimum magnitude displayed is 2.5.

Coastal Water Temperatures

Place Temperature

Stations

Nearby Weather Stations

Station Location Temp. Windchill Dew Point Humidity Wind Precip. Elev Updated Type